sensor_id;sensor_type;location;lat;lon;timestamp;temperature;humidity
7846;DHT22;3968;51.424;6.788;2022-10-26T00:02:21;11.60;99.90
7846;DHT22;3968;51.424;6.788;2022-10-26T00:04:47;11.60;99.90
7846;DHT22;3968;51.424;6.788;2022-10-26T00:07:13;11.60;99.90
7846;DHT22;3968;51.424;6.788;2022-10-26T00:09:38;11.70;99.90
7846;DHT22;3968;51.424;6.788;2022-10-26T00:12:04;11.60;99.90
7846;DHT22;3968;51.424;6.788;2022-10-26T00:14:30;11.70;99.90
7846;DHT22;3968;51.424;6.788;2022-10-26T00:16:55;11.70;99.90
7846;DHT22;3968;51.424;6.788;2022-10-26T00:19:21;11.70;99.90
7846;DHT22;3968;51.424;6.788;2022-10-26T00:21:47;11.70;99.90
7846;DHT22;3968;51.424;6.788;2022-10-26T00:24:12;11.80;99.90
7846;DHT22;3968;51.424;6.788;2022-10-26T00:26:38;11.80;99.90
7846;DHT22;3968;51.424;6.788;2022-10-26T00:29:05;11.80;99.90
7846;DHT22;3968;51.424;6.788;2022-10-26T00:31:32;11.80;99.90
7846;DHT22;3968;51.424;6.788;2022-10-26T00:33:57;11.80;99.90
7846;DHT22;3968;51.424;6.788;2022-10-26T00:36:24;11.90;99.90
7846;DHT22;3968;51.424;6.788;2022-10-26T00:38:54;11.80;99.90
7846;DHT22;3968;51.424;6.788;2022-10-26T00:41:25;11.90;99.90
7846;DHT22;3968;51.424;6.788;2022-10-26T00:43:53;12.00;99.90
7846;DHT22;3968;51.424;6.788;2022-10-26T00:46:21;11.90;99.90
7846;DHT22;3968;51.424;6.788;2022-10-26T00:48:51;11.90;99.90
7846;DHT22;3968;51.424;6.788;2022-10-26T00:51:31;12.00;99.90
7846;DHT22;3968;51.424;6.788;2022-10-26T00:54:03;12.00;99.90
7846;DHT22;3968;51.424;6.788;2022-10-26T00:56:31;12.00;99.90
7846;DHT22;3968;51.424;6.788;2022-10-26T00:59:01;12.00;99.90
7846;DHT22;3968;51.424;6.788;2022-10-26T01:01:31;12.00;99.90
7846;DHT22;3968;51.424;6.788;2022-10-26T01:03:59;11.90;99.90
7846;DHT22;3968;51.424;6.788;2022-10-26T01:06:26;11.90;99.90
7846;DHT22;3968;51.424;6.788;2022-10-26T01:08:52;11.90;99.90
7846;DHT22;3968;51.424;6.788;2022-10-26T01:11:18;11.90;99.90
7846;DHT22;3968;51.424;6.788;2022-10-26T01:13:45;12.00;99.90
7846;DHT22;3968;51.424;6.788;2022-10-26T01:24:21;11.90;99.90
7846;DHT22;3968;51.424;6.788;2022-10-26T01:32:22;12.10;99.90
7846;DHT22;3968;51.424;6.788;2022-10-26T01:37:45;12.20;99.90
7846;DHT22;3968;51.424;6.788;2022-10-26T01:41:01;12.30;99.90
7846;DHT22;3968;51.424;6.788;2022-10-26T01:43:08;12.40;99.90
7846;DHT22;3968;51.424;6.788;2022-10-26T01:45:39;12.50;99.90
7846;DHT22;3968;51.424;6.788;2022-10-26T01:48:08;12.40;99.90
7846;DHT22;3968;51.424;6.788;2022-10-26T01:50:34;12.50;99.90
7846;DHT22;3968;51.424;6.788;2022-10-26T01:53:00;12.40;99.90
7846;DHT22;3968;51.424;6.788;2022-10-26T01:55:46;12.50;99.90
7846;DHT22;3968;51.424;6.788;2022-10-26T02:04:30;12.50;99.90
7846;DHT22;3968;51.424;6.788;2022-10-26T02:10:01;12.50;99.90
7846;DHT22;3968;51.424;6.788;2022-10-26T02:15:21;12.60;99.90
7846;DHT22;3968;51.424;6.788;2022-10-26T02:17:58;12.60;99.90
7846;DHT22;3968;51.424;6.788;2022-10-26T02:20:45;12.70;99.90
7846;DHT22;3968;51.424;6.788;2022-10-26T02:23:14;12.70;99.90
7846;DHT22;3968;51.424;6.788;2022-10-26T02:25:46;12.70;99.90
7846;DHT22;3968;51.424;6.788;2022-10-26T02:28:16;12.70;99.90
7846;DHT22;3968;51.424;6.788;2022-10-26T02:30:46;12.70;99.90
7846;DHT22;3968;51.424;6.788;2022-10-26T02:33:13;12.80;99.90
7846;DHT22;3968;51.424;6.788;2022-10-26T02:35:41;12.80;99.90
7846;DHT22;3968;51.424;6.788;2022-10-26T02:38:09;12.80;99.90
7846;DHT22;3968;51.424;6.788;2022-10-26T02:40:37;12.80;99.90
7846;DHT22;3968;51.424;6.788;2022-10-26T02:43:11;12.90;99.90
7846;DHT22;3968;51.424;6.788;2022-10-26T02:45:43;12.90;99.90
7846;DHT22;3968;51.424;6.788;2022-10-26T02:48:10;13.00;99.90
7846;DHT22;3968;51.424;6.788;2022-10-26T02:50:50;13.00;99.90
7846;DHT22;3968;51.424;6.788;2022-10-26T02:55:50;13.00;99.90
7846;DHT22;3968;51.424;6.788;2022-10-26T02:58:27;13.00;99.90
7846;DHT22;3968;51.424;6.788;2022-10-26T03:00:54;13.10;99.90
7846;DHT22;3968;51.424;6.788;2022-10-26T03:03:21;13.10;99.90
7846;DHT22;3968;51.424;6.788;2022-10-26T03:05:46;13.20;99.90
7846;DHT22;3968;51.424;6.788;2022-10-26T03:08:12;13.20;99.90
7846;DHT22;3968;51.424;6.788;2022-10-26T03:10:42;13.20;99.90
7846;DHT22;3968;51.424;6.788;2022-10-26T03:13:09;13.20;99.90
7846;DHT22;3968;51.424;6.788;2022-10-26T03:15:35;13.30;99.90
7846;DHT22;3968;51.424;6.788;2022-10-26T03:18:01;13.30;99.90
7846;DHT22;3968;51.424;6.788;2022-10-26T03:20:27;13.30;99.90
7846;DHT22;3968;51.424;6.788;2022-10-26T03:22:53;13.40;99.90
7846;DHT22;3968;51.424;6.788;2022-10-26T03:25:21;13.40;99.90
7846;DHT22;3968;51.424;6.788;2022-10-26T03:27:54;13.50;99.90
7846;DHT22;3968;51.424;6.788;2022-10-26T03:30:20;13.50;99.90
7846;DHT22;3968;51.424;6.788;2022-10-26T03:32:45;13.50;99.90
7846;DHT22;3968;51.424;6.788;2022-10-26T03:35:11;13.50;99.90
7846;DHT22;3968;51.424;6.788;2022-10-26T03:37:37;13.50;99.90
7846;DHT22;3968;51.424;6.788;2022-10-26T03:40:02;13.60;99.90
7846;DHT22;3968;51.424;6.788;2022-10-26T03:42:32;13.60;99.90
7846;DHT22;3968;51.424;6.788;2022-10-26T03:44:58;13.60;99.90
7846;DHT22;3968;51.424;6.788;2022-10-26T03:47:23;13.50;99.90
7846;DHT22;3968;51.424;6.788;2022-10-26T03:49:49;13.50;99.90
7846;DHT22;3968;51.424;6.788;2022-10-26T03:52:15;13.50;99.90
7846;DHT22;3968;51.424;6.788;2022-10-26T03:54:40;13.50;99.90
7846;DHT22;3968;51.424;6.788;2022-10-26T03:57:06;13.50;99.90
7846;DHT22;3968;51.424;6.788;2022-10-26T03:59:31;13.50;99.90
7846;DHT22;3968;51.424;6.788;2022-10-26T04:01:57;13.60;99.90
7846;DHT22;3968;51.424;6.788;2022-10-26T04:04:23;13.60;99.90
7846;DHT22;3968;51.424;6.788;2022-10-26T04:06:48;13.80;99.90
7846;DHT22;3968;51.424;6.788;2022-10-26T04:09:14;13.70;99.90
7846;DHT22;3968;51.424;6.788;2022-10-26T04:11:39;13.90;99.90
7846;DHT22;3968;51.424;6.788;2022-10-26T04:14:05;13.90;99.90
7846;DHT22;3968;51.424;6.788;2022-10-26T04:16:31;14.00;99.90
7846;DHT22;3968;51.424;6.788;2022-10-26T04:18:56;14.00;99.90
7846;DHT22;3968;51.424;6.788;2022-10-26T04:21:22;14.10;99.90
7846;DHT22;3968;51.424;6.788;2022-10-26T04:23:47;14.10;99.90
7846;DHT22;3968;51.424;6.788;2022-10-26T04:26:13;14.10;99.90
7846;DHT22;3968;51.424;6.788;2022-10-26T04:28:39;14.10;99.90
7846;DHT22;3968;51.424;6.788;2022-10-26T04:31:04;14.10;99.90
7846;DHT22;3968;51.424;6.788;2022-10-26T04:33:30;14.20;99.90
7846;DHT22;3968;51.424;6.788;2022-10-26T04:35:59;14.20;99.90
7846;DHT22;3968;51.424;6.788;2022-10-26T04:38:25;14.40;99.90
7846;DHT22;3968;51.424;6.788;2022-10-26T04:40:51;14.50;99.90
7846;DHT22;3968;51.424;6.788;2022-10-26T04:43:16;14.50;99.90
7846;DHT22;3968;51.424;6.788;2022-10-26T04:45:42;14.50;99.90
7846;DHT22;3968;51.424;6.788;2022-10-26T04:48:12;14.50;99.90
7846;DHT22;3968;51.424;6.788;2022-10-26T04:50:38;14.50;99.90
7846;DHT22;3968;51.424;6.788;2022-10-26T04:53:06;14.50;99.90
7846;DHT22;3968;51.424;6.788;2022-10-26T04:55:32;14.50;99.90
7846;DHT22;3968;51.424;6.788;2022-10-26T04:57:58;14.60;99.90
7846;DHT22;3968;51.424;6.788;2022-10-26T05:00:24;14.60;99.90
7846;DHT22;3968;51.424;6.788;2022-10-26T05:02:50;14.70;99.90
7846;DHT22;3968;51.424;6.788;2022-10-26T05:05:15;14.70;99.90
7846;DHT22;3968;51.424;6.788;2022-10-26T05:07:41;14.60;99.90
7846;DHT22;3968;51.424;6.788;2022-10-26T05:10:07;14.50;99.90
7846;DHT22;3968;51.424;6.788;2022-10-26T05:12:33;14.60;99.90
7846;DHT22;3968;51.424;6.788;2022-10-26T05:14:59;14.60;99.90
7846;DHT22;3968;51.424;6.788;2022-10-26T05:17:25;14.60;99.90
7846;DHT22;3968;51.424;6.788;2022-10-26T05:19:51;14.60;99.90
7846;DHT22;3968;51.424;6.788;2022-10-26T05:22:24;14.70;99.90
7846;DHT22;3968;51.424;6.788;2022-10-26T05:24:50;14.70;99.90
7846;DHT22;3968;51.424;6.788;2022-10-26T05:27:16;14.60;99.90
7846;DHT22;3968;51.424;6.788;2022-10-26T05:29:41;14.60;99.90
7846;DHT22;3968;51.424;6.788;2022-10-26T05:32:07;14.60;99.90
7846;DHT22;3968;51.424;6.788;2022-10-26T05:34:32;14.60;99.90
7846;DHT22;3968;51.424;6.788;2022-10-26T05:36:58;14.50;99.90
7846;DHT22;3968;51.424;6.788;2022-10-26T05:39:24;14.60;99.90
7846;DHT22;3968;51.424;6.788;2022-10-26T05:41:49;14.70;99.90
7846;DHT22;3968;51.424;6.788;2022-10-26T05:44:15;14.70;99.90
7846;DHT22;3968;51.424;6.788;2022-10-26T05:46:41;14.70;99.90
7846;DHT22;3968;51.424;6.788;2022-10-26T05:49:07;14.60;99.90
7846;DHT22;3968;51.424;6.788;2022-10-26T05:51:33;14.60;99.90
7846;DHT22;3968;51.424;6.788;2022-10-26T05:54:02;14.70;99.90
7846;DHT22;3968;51.424;6.788;2022-10-26T05:56:39;14.70;99.90
7846;DHT22;3968;51.424;6.788;2022-10-26T05:59:15;14.70;99.90
7846;DHT22;3968;51.424;6.788;2022-10-26T06:06:51;14.70;99.90
7846;DHT22;3968;51.424;6.788;2022-10-26T06:09:18;14.70;99.90
7846;DHT22;3968;51.424;6.788;2022-10-26T06:11:44;14.60;99.90
7846;DHT22;3968;51.424;6.788;2022-10-26T06:14:10;14.60;99.90
7846;DHT22;3968;51.424;6.788;2022-10-26T06:27:51;14.70;99.90
7846;DHT22;3968;51.424;6.788;2022-10-26T06:30:20;14.70;99.90
7846;DHT22;3968;51.424;6.788;2022-10-26T06:32:47;14.60;99.90
7846;DHT22;3968;51.424;6.788;2022-10-26T06:38:02;14.70;99.90
7846;DHT22;3968;51.424;6.788;2022-10-26T06:40:31;14.60;99.90
7846;DHT22;3968;51.424;6.788;2022-10-26T06:42:58;14.60;99.90
7846;DHT22;3968;51.424;6.788;2022-10-26T06:45:24;14.60;99.90
7846;DHT22;3968;51.424;6.788;2022-10-26T06:47:58;14.70;99.90
7846;DHT22;3968;51.424;6.788;2022-10-26T06:51:01;14.80;99.90
7846;DHT22;3968;51.424;6.788;2022-10-26T06:53:51;14.80;99.90
7846;DHT22;3968;51.424;6.788;2022-10-26T06:56:20;14.70;99.90
7846;DHT22;3968;51.424;6.788;2022-10-26T06:58:47;14.80;99.90
7846;DHT22;3968;51.424;6.788;2022-10-26T07:01:13;14.80;99.90
7846;DHT22;3968;51.424;6.788;2022-10-26T07:03:39;14.80;99.90
7846;DHT22;3968;51.424;6.788;2022-10-26T07:06:05;14.90;99.90
7846;DHT22;3968;51.424;6.788;2022-10-26T07:08:31;15.00;99.90
7846;DHT22;3968;51.424;6.788;2022-10-26T07:10:56;15.10;99.90
7846;DHT22;3968;51.424;6.788;2022-10-26T07:13:22;15.10;99.90
7846;DHT22;3968;51.424;6.788;2022-10-26T07:15:48;15.10;99.90
7846;DHT22;3968;51.424;6.788;2022-10-26T07:18:13;15.20;99.90
7846;DHT22;3968;51.424;6.788;2022-10-26T07:20:40;15.20;99.90
7846;DHT22;3968;51.424;6.788;2022-10-26T07:23:07;15.20;99.90
7846;DHT22;3968;51.424;6.788;2022-10-26T07:25:36;15.30;99.90
7846;DHT22;3968;51.424;6.788;2022-10-26T07:28:05;15.30;99.90
7846;DHT22;3968;51.424;6.788;2022-10-26T07:30:31;15.30;99.90
7846;DHT22;3968;51.424;6.788;2022-10-26T07:33:10;15.50;99.90
7846;DHT22;3968;51.424;6.788;2022-10-26T07:35:36;15.60;99.90
7846;DHT22;3968;51.424;6.788;2022-10-26T07:38:02;15.70;99.90
7846;DHT22;3968;51.424;6.788;2022-10-26T07:40:29;15.70;99.90
7846;DHT22;3968;51.424;6.788;2022-10-26T07:42:57;15.70;99.90
7846;DHT22;3968;51.424;6.788;2022-10-26T07:45:23;15.80;99.90
7846;DHT22;3968;51.424;6.788;2022-10-26T07:47:49;15.80;99.90
7846;DHT22;3968;51.424;6.788;2022-10-26T07:50:15;15.90;99.90
7846;DHT22;3968;51.424;6.788;2022-10-26T07:52:41;16.10;99.90
7846;DHT22;3968;51.424;6.788;2022-10-26T07:55:08;16.10;99.90
7846;DHT22;3968;51.424;6.788;2022-10-26T07:57:34;16.40;99.90
7846;DHT22;3968;51.424;6.788;2022-10-26T08:00:00;17.00;99.90
7846;DHT22;3968;51.424;6.788;2022-10-26T08:02:26;17.50;99.90
7846;DHT22;3968;51.424;6.788;2022-10-26T08:04:51;17.40;99.90
7846;DHT22;3968;51.424;6.788;2022-10-26T08:07:17;17.20;99.90
7846;DHT22;3968;51.424;6.788;2022-10-26T08:09:43;17.80;99.90
7846;DHT22;3968;51.424;6.788;2022-10-26T08:12:08;18.70;99.90
7846;DHT22;3968;51.424;6.788;2022-10-26T08:14:34;19.80;99.90
7846;DHT22;3968;51.424;6.788;2022-10-26T08:16:59;20.70;99.90
7846;DHT22;3968;51.424;6.788;2022-10-26T08:19:25;21.60;99.90
7846;DHT22;3968;51.424;6.788;2022-10-26T08:21:51;21.80;99.90
7846;DHT22;3968;51.424;6.788;2022-10-26T08:27:38;21.10;99.90
7846;DHT22;3968;51.424;6.788;2022-10-26T08:30:04;21.40;99.90
7846;DHT22;3968;51.424;6.788;2022-10-26T08:32:30;21.70;99.90
7846;DHT22;3968;51.424;6.788;2022-10-26T08:34:56;21.40;99.90
7846;DHT22;3968;51.424;6.788;2022-10-26T08:37:21;20.90;99.90
7846;DHT22;3968;51.424;6.788;2022-10-26T08:39:47;20.90;99.90
7846;DHT22;3968;51.424;6.788;2022-10-26T08:42:14;21.30;99.90
7846;DHT22;3968;51.424;6.788;2022-10-26T08:44:46;21.80;99.90
7846;DHT22;3968;51.424;6.788;2022-10-26T08:47:21;22.00;99.90
7846;DHT22;3968;51.424;6.788;2022-10-26T08:52:24;22.10;99.90
7846;DHT22;3968;51.424;6.788;2022-10-26T08:54:54;22.50;99.90
7846;DHT22;3968;51.424;6.788;2022-10-26T08:57:38;22.60;99.90
7846;DHT22;3968;51.424;6.788;2022-10-26T09:00:19;23.30;99.90
7846;DHT22;3968;51.424;6.788;2022-10-26T09:02:52;23.10;99.90
7846;DHT22;3968;51.424;6.788;2022-10-26T09:05:24;22.70;99.90
7846;DHT22;3968;51.424;6.788;2022-10-26T09:11:16;22.00;99.90
7846;DHT22;3968;51.424;6.788;2022-10-26T09:14:08;22.00;99.90
7846;DHT22;3968;51.424;6.788;2022-10-26T09:16:55;22.60;99.90
7846;DHT22;3968;51.424;6.788;2022-10-26T09:19:34;22.30;99.90
7846;DHT22;3968;51.424;6.788;2022-10-26T09:24:55;20.90;99.90
7846;DHT22;3968;51.424;6.788;2022-10-26T09:27:29;20.90;99.90
7846;DHT22;3968;51.424;6.788;2022-10-26T09:29:59;20.40;99.90
7846;DHT22;3968;51.424;6.788;2022-10-26T09:32:40;19.90;99.90
7846;DHT22;3968;51.424;6.788;2022-10-26T09:35:20;19.30;99.90
7846;DHT22;3968;51.424;6.788;2022-10-26T09:37:50;18.80;99.90
7846;DHT22;3968;51.424;6.788;2022-10-26T09:40:29;18.60;99.90
7846;DHT22;3968;51.424;6.788;2022-10-26T09:45:52;18.70;99.90
7846;DHT22;3968;51.424;6.788;2022-10-26T09:50:57;19.50;99.90
7846;DHT22;3968;51.424;6.788;2022-10-26T09:53:25;20.30;99.90
7846;DHT22;3968;51.424;6.788;2022-10-26T09:58:33;23.70;99.90
7846;DHT22;3968;51.424;6.788;2022-10-26T10:01:00;24.50;99.60
7846;DHT22;3968;51.424;6.788;2022-10-26T10:03:28;25.10;93.00
7846;DHT22;3968;51.424;6.788;2022-10-26T10:06:15;24.30;93.40
7846;DHT22;3968;51.424;6.788;2022-10-26T10:08:42;23.60;99.90
7846;DHT22;3968;51.424;6.788;2022-10-26T10:11:10;24.10;99.90
7846;DHT22;3968;51.424;6.788;2022-10-26T10:13:42;24.90;94.00
7846;DHT22;3968;51.424;6.788;2022-10-26T10:16:22;25.00;91.00
7846;DHT22;3968;51.424;6.788;2022-10-26T10:18:59;24.90;91.70
7846;DHT22;3968;51.424;6.788;2022-10-26T10:21:47;24.60;92.80
7846;DHT22;3968;51.424;6.788;2022-10-26T10:29:33;24.10;97.60
7846;DHT22;3968;51.424;6.788;2022-10-26T10:32:01;23.80;99.90
7846;DHT22;3968;51.424;6.788;2022-10-26T10:34:30;24.30;99.80
7846;DHT22;3968;51.424;6.788;2022-10-26T10:36:56;23.70;99.90
7846;DHT22;3968;51.424;6.788;2022-10-26T10:39:39;22.70;99.90
7846;DHT22;3968;51.424;6.788;2022-10-26T10:45:29;22.60;99.90
7846;DHT22;3968;51.424;6.788;2022-10-26T10:48:20;23.10;99.90
7846;DHT22;3968;51.424;6.788;2022-10-26T10:51:02;23.30;99.90
7846;DHT22;3968;51.424;6.788;2022-10-26T10:53:35;23.80;99.90
7846;DHT22;3968;51.424;6.788;2022-10-26T10:59:04;24.70;99.90
7846;DHT22;3968;51.424;6.788;2022-10-26T11:01:54;24.50;99.90
7846;DHT22;3968;51.424;6.788;2022-10-26T11:04:26;24.30;99.90
7846;DHT22;3968;51.424;6.788;2022-10-26T11:06:59;24.30;99.90
7846;DHT22;3968;51.424;6.788;2022-10-26T11:09:32;24.40;99.90
7846;DHT22;3968;51.424;6.788;2022-10-26T11:12:15;24.60;99.90
7846;DHT22;3968;51.424;6.788;2022-10-26T11:14:46;25.10;99.90
7846;DHT22;3968;51.424;6.788;2022-10-26T11:17:22;25.20;98.80
7846;DHT22;3968;51.424;6.788;2022-10-26T11:19:55;24.60;99.90
7846;DHT22;3968;51.424;6.788;2022-10-26T11:22:28;24.30;99.90
7846;DHT22;3968;51.424;6.788;2022-10-26T11:25:21;24.00;99.90
7846;DHT22;3968;51.424;6.788;2022-10-26T11:27:48;24.10;99.90
7846;DHT22;3968;51.424;6.788;2022-10-26T11:30:19;24.00;99.90
7846;DHT22;3968;51.424;6.788;2022-10-26T11:35:25;23.40;99.90
7846;DHT22;3968;51.424;6.788;2022-10-26T11:40:50;24.30;99.90
7846;DHT22;3968;51.424;6.788;2022-10-26T11:43:36;23.70;99.90
7846;DHT22;3968;51.424;6.788;2022-10-26T11:46:22;23.40;99.90
7846;DHT22;3968;51.424;6.788;2022-10-26T11:56:54;23.60;99.90
7846;DHT22;3968;51.424;6.788;2022-10-26T11:59:26;23.60;99.90
7846;DHT22;3968;51.424;6.788;2022-10-26T12:02:14;23.80;99.90
7846;DHT22;3968;51.424;6.788;2022-10-26T12:04:42;23.90;99.90
7846;DHT22;3968;51.424;6.788;2022-10-26T12:07:30;24.00;99.90
7846;DHT22;3968;51.424;6.788;2022-10-26T12:09:59;24.30;99.90
7846;DHT22;3968;51.424;6.788;2022-10-26T12:12:36;24.20;99.90
7846;DHT22;3968;51.424;6.788;2022-10-26T12:22:44;24.60;99.90
7846;DHT22;3968;51.424;6.788;2022-10-26T12:35:34;23.20;99.90
7846;DHT22;3968;51.424;6.788;2022-10-26T12:40:45;22.30;99.90
7846;DHT22;3968;51.424;6.788;2022-10-26T12:45:44;21.80;99.90
7846;DHT22;3968;51.424;6.788;2022-10-26T12:54:02;23.40;99.90
7846;DHT22;3968;51.424;6.788;2022-10-26T12:57:04;23.60;99.90
7846;DHT22;3968;51.424;6.788;2022-10-26T12:59:51;23.60;99.90
7846;DHT22;3968;51.424;6.788;2022-10-26T13:07:51;22.40;99.90
7846;DHT22;3968;51.424;6.788;2022-10-26T13:10:25;22.30;99.90
7846;DHT22;3968;51.424;6.788;2022-10-26T13:12:56;22.40;99.90
7846;DHT22;3968;51.424;6.788;2022-10-26T13:18:17;22.90;99.90
7846;DHT22;3968;51.424;6.788;2022-10-26T13:23:39;22.80;99.90
7846;DHT22;3968;51.424;6.788;2022-10-26T13:26:09;22.70;99.90
7846;DHT22;3968;51.424;6.788;2022-10-26T13:33:42;23.40;99.90
7846;DHT22;3968;51.424;6.788;2022-10-26T13:36:31;23.30;99.90
7846;DHT22;3968;51.424;6.788;2022-10-26T13:38:59;23.50;99.90
7846;DHT22;3968;51.424;6.788;2022-10-26T13:41:41;23.40;99.90
7846;DHT22;3968;51.424;6.788;2022-10-26T13:44:18;23.10;99.90
7846;DHT22;3968;51.424;6.788;2022-10-26T13:46:51;22.80;99.90
7846;DHT22;3968;51.424;6.788;2022-10-26T13:49:24;22.60;99.90
7846;DHT22;3968;51.424;6.788;2022-10-26T13:51:52;22.30;99.90
7846;DHT22;3968;51.424;6.788;2022-10-26T13:54:36;22.30;99.90
7846;DHT22;3968;51.424;6.788;2022-10-26T13:57:12;22.30;99.90
7846;DHT22;3968;51.424;6.788;2022-10-26T13:59:42;22.60;99.90
7846;DHT22;3968;51.424;6.788;2022-10-26T14:04:44;23.00;99.90
7846;DHT22;3968;51.424;6.788;2022-10-26T14:07:19;23.30;99.90
7846;DHT22;3968;51.424;6.788;2022-10-26T14:09:55;23.50;99.90
7846;DHT22;3968;51.424;6.788;2022-10-26T14:12:24;23.40;99.90
7846;DHT22;3968;51.424;6.788;2022-10-26T14:14:51;23.40;99.90
7846;DHT22;3968;51.424;6.788;2022-10-26T14:17:20;23.00;99.90
7846;DHT22;3968;51.424;6.788;2022-10-26T14:19:47;22.70;99.90
7846;DHT22;3968;51.424;6.788;2022-10-26T14:22:26;22.40;99.90
7846;DHT22;3968;51.424;6.788;2022-10-26T14:24:57;22.40;99.90
7846;DHT22;3968;51.424;6.788;2022-10-26T14:27:37;22.40;99.90
7846;DHT22;3968;51.424;6.788;2022-10-26T14:32:51;22.40;99.90
7846;DHT22;3968;51.424;6.788;2022-10-26T14:35:24;22.40;99.90
7846;DHT22;3968;51.424;6.788;2022-10-26T14:38:09;22.20;99.90
7846;DHT22;3968;51.424;6.788;2022-10-26T14:40:40;22.20;99.90
7846;DHT22;3968;51.424;6.788;2022-10-26T14:43:10;22.10;99.90
7846;DHT22;3968;51.424;6.788;2022-10-26T14:45:38;22.00;99.90
7846;DHT22;3968;51.424;6.788;2022-10-26T14:48:05;21.90;99.90
7846;DHT22;3968;51.424;6.788;2022-10-26T14:50:32;21.80;99.90
7846;DHT22;3968;51.424;6.788;2022-10-26T14:53:02;21.70;99.90
7846;DHT22;3968;51.424;6.788;2022-10-26T14:55:29;21.60;99.90
7846;DHT22;3968;51.424;6.788;2022-10-26T14:58:07;21.40;99.90
7846;DHT22;3968;51.424;6.788;2022-10-26T15:00:38;21.30;99.90
7846;DHT22;3968;51.424;6.788;2022-10-26T15:03:12;21.20;99.90
7846;DHT22;3968;51.424;6.788;2022-10-26T15:05:38;21.20;99.90
7846;DHT22;3968;51.424;6.788;2022-10-26T15:08:04;21.10;99.90
7846;DHT22;3968;51.424;6.788;2022-10-26T15:10:49;21.00;99.90
7846;DHT22;3968;51.424;6.788;2022-10-26T15:13:32;21.00;99.90
7846;DHT22;3968;51.424;6.788;2022-10-26T15:18:37;20.80;99.90
7846;DHT22;3968;51.424;6.788;2022-10-26T15:21:18;20.80;99.90
7846;DHT22;3968;51.424;6.788;2022-10-26T15:23:45;20.80;99.90
7846;DHT22;3968;51.424;6.788;2022-10-26T15:26:11;20.70;99.90
7846;DHT22;3968;51.424;6.788;2022-10-26T15:28:38;20.70;99.90
7846;DHT22;3968;51.424;6.788;2022-10-26T15:31:27;20.60;99.90
7846;DHT22;3968;51.424;6.788;2022-10-26T15:36:21;20.50;99.90
7846;DHT22;3968;51.424;6.788;2022-10-26T15:38:48;20.40;99.90
7846;DHT22;3968;51.424;6.788;2022-10-26T15:43:42;20.30;99.90
7846;DHT22;3968;51.424;6.788;2022-10-26T15:46:11;20.30;99.90
7846;DHT22;3968;51.424;6.788;2022-10-26T15:48:36;20.20;99.90
7846;DHT22;3968;51.424;6.788;2022-10-26T15:51:04;20.10;99.90
7846;DHT22;3968;51.424;6.788;2022-10-26T15:53:29;20.10;99.90
7846;DHT22;3968;51.424;6.788;2022-10-26T15:55:57;20.00;99.90
7846;DHT22;3968;51.424;6.788;2022-10-26T15:58:24;19.90;99.90
7846;DHT22;3968;51.424;6.788;2022-10-26T16:00:50;19.90;99.90
7846;DHT22;3968;51.424;6.788;2022-10-26T16:03:24;19.80;99.90
7846;DHT22;3968;51.424;6.788;2022-10-26T16:06:01;19.70;99.90
7846;DHT22;3968;51.424;6.788;2022-10-26T16:08:30;19.60;99.90
7846;DHT22;3968;51.424;6.788;2022-10-26T16:10:56;19.60;99.90
7846;DHT22;3968;51.424;6.788;2022-10-26T16:13:22;19.50;99.90
7846;DHT22;3968;51.424;6.788;2022-10-26T16:15:48;19.40;99.90
7846;DHT22;3968;51.424;6.788;2022-10-26T16:18:14;19.40;99.90
7846;DHT22;3968;51.424;6.788;2022-10-26T16:20:40;19.30;99.90
7846;DHT22;3968;51.424;6.788;2022-10-26T16:23:06;19.30;99.90
7846;DHT22;3968;51.424;6.788;2022-10-26T16:25:41;19.20;99.90
7846;DHT22;3968;51.424;6.788;2022-10-26T16:28:09;19.20;99.90
7846;DHT22;3968;51.424;6.788;2022-10-26T16:30:35;18.70;99.90
7846;DHT22;3968;51.424;6.788;2022-10-26T16:33:01;19.10;99.90
7846;DHT22;3968;51.424;6.788;2022-10-26T16:35:27;19.00;99.90
7846;DHT22;3968;51.424;6.788;2022-10-26T16:37:52;19.00;99.90
7846;DHT22;3968;51.424;6.788;2022-10-26T16:40:18;18.90;99.90
7846;DHT22;3968;51.424;6.788;2022-10-26T16:42:44;19.00;99.90
7846;DHT22;3968;51.424;6.788;2022-10-26T16:45:11;18.90;99.90
7846;DHT22;3968;51.424;6.788;2022-10-26T16:47:37;18.80;99.90
7846;DHT22;3968;51.424;6.788;2022-10-26T16:50:08;18.80;99.90
7846;DHT22;3968;51.424;6.788;2022-10-26T16:52:35;18.80;99.90
7846;DHT22;3968;51.424;6.788;2022-10-26T16:55:02;18.70;99.90
7846;DHT22;3968;51.424;6.788;2022-10-26T16:57:27;18.60;99.90
7846;DHT22;3968;51.424;6.788;2022-10-26T16:59:53;18.60;99.90
7846;DHT22;3968;51.424;6.788;2022-10-26T17:02:19;18.60;99.90
7846;DHT22;3968;51.424;6.788;2022-10-26T17:04:45;18.70;99.90
7846;DHT22;3968;51.424;6.788;2022-10-26T17:07:10;18.70;99.90
7846;DHT22;3968;51.424;6.788;2022-10-26T17:09:36;18.70;99.90
7846;DHT22;3968;51.424;6.788;2022-10-26T17:12:02;18.60;99.90
7846;DHT22;3968;51.424;6.788;2022-10-26T17:14:28;18.60;99.90
7846;DHT22;3968;51.424;6.788;2022-10-26T17:16:53;18.60;99.90
7846;DHT22;3968;51.424;6.788;2022-10-26T17:19:19;18.60;99.90
7846;DHT22;3968;51.424;6.788;2022-10-26T17:21:45;18.60;99.90
7846;DHT22;3968;51.424;6.788;2022-10-26T17:24:10;18.50;99.90
7846;DHT22;3968;51.424;6.788;2022-10-26T17:26:38;18.50;99.90
7846;DHT22;3968;51.424;6.788;2022-10-26T17:29:04;18.40;99.90
7846;DHT22;3968;51.424;6.788;2022-10-26T17:31:30;18.50;99.90
7846;DHT22;3968;51.424;6.788;2022-10-26T17:33:56;18.50;99.90
7846;DHT22;3968;51.424;6.788;2022-10-26T17:36:23;18.40;99.90
7846;DHT22;3968;51.424;6.788;2022-10-26T17:38:52;18.30;99.90
7846;DHT22;3968;51.424;6.788;2022-10-26T17:41:19;18.30;99.90
7846;DHT22;3968;51.424;6.788;2022-10-26T17:43:46;18.10;99.90
7846;DHT22;3968;51.424;6.788;2022-10-26T17:46:21;18.00;99.90
7846;DHT22;3968;51.424;6.788;2022-10-26T17:48:57;17.90;99.90
7846;DHT22;3968;51.424;6.788;2022-10-26T17:51:25;17.80;99.90
7846;DHT22;3968;51.424;6.788;2022-10-26T17:53:51;17.70;99.90
7846;DHT22;3968;51.424;6.788;2022-10-26T17:56:22;17.70;99.90
7846;DHT22;3968;51.424;6.788;2022-10-26T18:01:17;17.60;99.90
7846;DHT22;3968;51.424;6.788;2022-10-26T18:03:43;17.60;99.90
7846;DHT22;3968;51.424;6.788;2022-10-26T18:06:09;17.50;99.90
7846;DHT22;3968;51.424;6.788;2022-10-26T18:08:38;17.50;99.90
7846;DHT22;3968;51.424;6.788;2022-10-26T18:11:05;17.50;99.90
7846;DHT22;3968;51.424;6.788;2022-10-26T18:13:32;17.50;99.90
7846;DHT22;3968;51.424;6.788;2022-10-26T18:16:16;17.40;99.90
7846;DHT22;3968;51.424;6.788;2022-10-26T18:18:43;17.40;99.90
7846;DHT22;3968;51.424;6.788;2022-10-26T18:21:11;17.40;99.90
7846;DHT22;3968;51.424;6.788;2022-10-26T18:23:37;17.40;99.90
7846;DHT22;3968;51.424;6.788;2022-10-26T18:26:05;17.30;99.90
7846;DHT22;3968;51.424;6.788;2022-10-26T18:28:32;17.30;99.90
7846;DHT22;3968;51.424;6.788;2022-10-26T18:31:10;17.30;99.90
7846;DHT22;3968;51.424;6.788;2022-10-26T18:33:36;17.10;99.90
7846;DHT22;3968;51.424;6.788;2022-10-26T18:36:10;17.10;99.90
7846;DHT22;3968;51.424;6.788;2022-10-26T18:38:37;16.90;99.90
7846;DHT22;3968;51.424;6.788;2022-10-26T18:41:04;16.90;99.90
7846;DHT22;3968;51.424;6.788;2022-10-26T18:43:30;16.80;99.90
7846;DHT22;3968;51.424;6.788;2022-10-26T18:46:07;16.70;99.90
7846;DHT22;3968;51.424;6.788;2022-10-26T18:48:33;16.70;99.90
7846;DHT22;3968;51.424;6.788;2022-10-26T18:51:08;16.60;99.90
7846;DHT22;3968;51.424;6.788;2022-10-26T18:53:35;16.70;99.90
7846;DHT22;3968;51.424;6.788;2022-10-26T18:56:04;16.60;99.90